Terminal Aerodrome Forecast
Issued by NWS

Home | Current Version | Previous Version | Text Only | Print | Product List | Glossary Off
Versions: 1 2 3 4 5 6 7 8 9 10 11 12 13 14 15 16 17 18 19 20 21 22 23 24 25 26

812
FTUS43 KLOT 131122
TAFMDW
TAF
KMDW 131122Z 1312/1412 02012KT P6SM FEW025 BKN120
     FM132100 05010KT P6SM SCT025 OVC100
     FM140300 06005KT P6SM FEW025 SCT050 OVC120=

USA.gov is the U.S. government's official web portal to all federal, state and local government web resources and services.